Nicole Brent — WDC2615 — position and weather

sailwx.info

Track history (hours):
 
Tides and Currents Weather Stations Pressure Air Temp Water Temp Dewpoint Dewpoint Depression Visibility Wind Speed Wind Dir Waves Ship Positions

Nicole Brent

Owner: Kirby Inland Marine, LP, Houston, TX. More information available from US FCC via Universal Licensing System and Coast Guard Vessel Documentation Center.

Last reported at 2018-May-21 04:08 UTC. Time now 2018-May-21 18:54 UTC.
Position N 29°47' W 095°04'.

Length 105 m; draft 2.4 m.

Type: . MMSI: 366995620.

Date/timePositionNaut miles runAvg speedWind from/ knotsBaromVisibWave heightAir tempDewpointWater temp
2018-May-21 04:08N 29°47' W 095°04'0 0.0
2018-May-21 03:54N 29°47' W 095°04'0 0.0
2018-May-21 03:31N 29°47' W 095°04'0 0.0
2018-May-21 03:00N 29°47' W 095°04'  
2018-May-17 13:45N 29°48' W 095°04'0 0.3
2018-May-17 13:26N 29°47' W 095°04'0 0.0
2018-May-17 12:49N 29°47' W 095°04'0 0.0
2018-May-17 12:30N 29°47' W 095°04'0 0.0
2018-May-17 11:59N 29°47' W 095°04'0 0.1
2018-May-17 10:48N 29°47' W 095°04'0 0.0
2018-May-17 10:08N 29°47' W 095°04'0 0.0
2018-May-17 09:57N 29°47' W 095°04'0 0.0
2018-May-17 09:19N 29°47' W 095°04'0 0.0
2018-May-17 09:00N 29°47' W 095°04'0 0.0
2018-May-17 08:06N 29°47' W 095°04'0 0.0
2018-May-17 05:53N 29°47' W 095°04'0 0.0
2018-May-17 05:22N 29°47' W 095°04'0 0.0
2018-May-17 04:59N 29°47' W 095°04'0 0.0
2018-May-17 04:27N 29°47' W 095°04'0 0.0
2018-May-17 04:00N 29°47' W 095°04'0 0.0
2018-May-17 03:30N 29°47' W 095°04'0 0.0
2018-May-17 02:56N 29°47' W 095°04'0 0.1
2018-May-17 02:26N 29°47' W 095°04'2 4.3
2018-May-17 01:59N 29°46' W 095°05'4 6.8
2018-May-17 01:27N 29°44' W 095°09'3 0.2
2018-May-16 08:40N 29°44' W 095°12'0 0.0
2018-May-16 08:25N 29°44' W 095°12'0 0.0
2018-May-16 08:00N 29°44' W 095°12'0 0.0
2018-May-16 07:30N 29°44' W 095°12'0 0.0
2018-May-16 06:37N 29°44' W 095°12'0 0.0
2018-May-16 06:30N 29°44' W 095°12'0 0.0
2018-May-16 05:58N 29°44' W 095°12'0 0.0
2018-May-16 04:23N 29°44' W 095°12'0 0.0
2018-May-16 04:00N 29°44' W 095°12'1 0.5
2018-May-16 01:24N 29°45' W 095°11'4 7.5
2018-May-16 00:55N 29°45' W 095°06'3 5.2
2018-May-16 00:25N 29°44' W 095°03'3 6.9
2018-May-16 00:00N 29°42' W 095°01'4 7.5
2018-May-15 23:30N 29°39' W 094°58'4 8.1
2018-May-15 23:00N 29°36' W 094°56'4 8.0
2018-May-15 22:30N 29°32' W 094°54'11 6.5
2018-May-15 20:46N 29°24' W 094°45'1 4.4
2018-May-15 20:28N 29°25' W 094°44'3 6.0
2018-May-15 19:57N 29°27' W 094°42'3 5.8
2018-May-15 19:30N 29°28' W 094°39'3 6.6
2018-May-15 19:00N 29°29' W 094°36'3 6.6
2018-May-15 18:30N 29°31' W 094°32'3 6.2
2018-May-15 18:00N 29°32' W 094°29'3 6.2
2018-May-15 17:30N 29°34' W 094°26'3 4.1
2018-May-15 16:46N 29°36' W 094°23'1 4.3
2018-May-15 16:29N 29°36' W 094°22'2 4.9
2018-May-15 16:00N 29°37' W 094°20'3 6.3
2018-May-15 15:30N 29°39' W 094°17'3 6.4
2018-May-15 15:00N 29°40' W 094°13'3 6.4
2018-May-15 14:30N 29°41' W 094°10'3 6.4
2018-May-15 14:00N 29°43' W 094°07'3 6.6
2018-May-15 13:30N 29°45' W 094°04'3 6.9
2018-May-15 13:00N 29°47' W 094°01'3 6.5
2018-May-15 12:30N 29°49' W 093°58'3 6.5
2018-May-15 12:00N 29°52' W 093°56'3 6.8
2018-May-15 11:30N 29°55' W 093°53'3 6.1
2018-May-15 11:00N 29°57' W 093°52'3 6.2
2018-May-15 10:30N 29°59' W 093°54'4 7.1
2018-May-15 10:00N 30°01' W 093°58'2 4.2
2018-May-15 09:30N 30°01' W 094°01'1 1.6
2018-May-15 09:00N 30°01' W 094°01'0 0.0
2018-May-15 08:30N 30°01' W 094°01'0 0.0
2018-May-15 08:00N 30°01' W 094°01'0 0.0
2018-May-15 07:30N 30°01' W 094°01'0 0.0
2018-May-15 07:00N 30°01' W 094°01'0 0.0
2018-May-15 06:30N 30°01' W 094°01'0 0.0
2018-May-15 06:00N 30°01' W 094°01'0 0.0
2018-May-15 05:30N 30°01' W 094°01'0 0.0
2018-May-15 05:00N 30°01' W 094°01'0 0.0
2018-May-15 04:30N 30°01' W 094°01'0 0.0
2018-May-15 04:00N 30°01' W 094°01'0 0.0
2018-May-15 03:30N 30°01' W 094°01'0 0.0
2018-May-15 03:00N 30°01' W 094°01'0 0.0
2018-May-15 02:30N 30°01' W 094°01'0 0.0
2018-May-15 02:00N 30°01' W 094°01'0 0.0
2018-May-15 01:30N 30°01' W 094°01'0 0.0
2018-May-15 01:00N 30°01' W 094°01'0 0.0
2018-May-15 00:30N 30°01' W 094°01'0 0.0
2018-May-15 00:00N 30°01' W 094°01'3 6.4
2018-May-14 23:30N 30°01' W 093°58'3 6.0
2018-May-14 23:01N 29°60' W 093°55'0 0.2
2018-May-14 22:30N 29°60' W 093°55'1 2.8
2018-May-14 22:00N 29°59' W 093°53'1 1.2
2018-May-14 21:31N 29°59' W 093°53'2 3.9
2018-May-14 21:00N 29°60' W 093°55'0 0.0
2018-May-14 20:30N 29°60' W 093°55'0 0.0
2018-May-14 20:00N 29°60' W 093°55'0 0.0
2018-May-14 19:30N 29°60' W 093°55'0 0.0
2018-May-14 19:00N 29°60' W 093°55'1 1.7
2018-May-14 18:30N 29°59' W 093°54'2 4.5
2018-May-14 18:00N 29°58' W 093°52'3 6.0
2018-May-14 17:30N 29°60' W 093°55'0 0.0
2018-May-14 17:00N 29°60' W 093°55'0 0.0
2018-May-14 16:30N 29°60' W 093°55'0 0.0
2018-May-14 16:00N 29°60' W 093°55'0 0.0
2018-May-14 15:30N 29°60' W 093°55'0 0.0
2018-May-14 15:00N 29°60' W 093°55'0 0.0
2018-May-14 14:30N 29°60' W 093°55'0 0.0
2018-May-14 14:00N 29°60' W 093°55'0 0.0
2018-May-14 13:30N 29°60' W 093°55'0 0.0
2018-May-14 13:00N 29°60' W 093°55'0 0.0
2018-May-14 12:30N 29°60' W 093°55'1 2.6
2018-May-14 12:00N 29°59' W 093°53'1 2.6
2018-May-14 11:30N 29°59' W 093°52'3 5.2
2018-May-14 11:00N 29°60' W 093°55'0 0.0
2018-May-14 10:30N 29°60' W 093°55'0 0.0
2018-May-14 10:00N 29°60' W 093°55'0 0.0
2018-May-14 09:30N 29°60' W 093°55'0 0.0
2018-May-14 09:00N 29°60' W 093°55'0 0.0
2018-May-14 08:30N 29°60' W 093°55'0 0.0
2018-May-14 08:00N 29°60' W 093°55'0 0.0
2018-May-14 07:30N 29°60' W 093°55'2 3.8
2018-May-14 07:00N 29°59' W 093°53'1 2.5
2018-May-14 06:30N 29°58' W 093°52'0 0.0
2018-May-14 06:00N 29°58' W 093°52'3 5.3
2018-May-14 05:31N 29°59' W 093°54'1 1.2
2018-May-14 05:00N 29°60' W 093°55'0 0.0
2018-May-14 04:30N 29°60' W 093°55'0 0.0
2018-May-14 04:00N 29°60' W 093°55'0 0.0
2018-May-14 03:30N 29°60' W 093°55'0 0.0
2018-May-14 03:00N 29°60' W 093°55'0 0.0
2018-May-14 02:30N 29°60' W 093°55'0 0.0
2018-May-14 02:00N 29°60' W 093°55'0 0.0
2018-May-14 01:30N 29°60' W 093°55'0 0.0
2018-May-14 01:00N 29°60' W 093°55'0 0.0
2018-May-14 00:30N 29°60' W 093°55'0 0.0
2018-May-14 00:00N 29°60' W 093°55'0 0.0
2018-May-13 23:30N 29°60' W 093°55'0 0.0
2018-May-13 23:00N 29°60' W 093°55'0 0.0
2018-May-13 22:30N 29°60' W 093°55'0 0.0
2018-May-13 22:00N 29°60' W 093°55'0 0.0
2018-May-13 21:30N 29°60' W 093°55'0 0.0
2018-May-13 21:00N 29°60' W 093°55'0 0.0
2018-May-13 20:30N 29°60' W 093°55'0 0.0
2018-May-13 20:00N 29°60' W 093°55'0 0.0
2018-May-13 19:30N 29°60' W 093°55'0 0.0
2018-May-13 19:00N 29°60' W 093°55'0 0.0
2018-May-13 18:30N 29°60' W 093°55'0 0.0
2018-May-13 18:00N 29°60' W 093°55'0 0.0
2018-May-13 17:29N 29°60' W 093°55'0 0.0
2018-May-13 17:00N 29°60' W 093°55'0 0.0
2018-May-13 16:30N 29°60' W 093°55'0 0.0
2018-May-13 16:00N 29°60' W 093°55'0 0.0
2018-May-13 15:30N 29°60' W 093°55'0 0.0
2018-May-13 15:01N 29°60' W 093°55'0 0.0
2018-May-13 14:30N 29°60' W 093°55'0 0.0
2018-May-13 14:00N 29°60' W 093°55'0 0.0
2018-May-13 13:30N 29°60' W 093°55'0 0.0
2018-May-13 13:00N 29°60' W 093°55'0 0.0
2018-May-13 12:30N 29°60' W 093°55'0 0.0
2018-May-13 12:00N 29°60' W 093°55'0 0.0
2018-May-13 11:30N 29°60' W 093°55'0 0.0
2018-May-13 11:00N 29°60' W 093°55'0 0.0
2018-May-13 10:30N 29°60' W 093°55'0 0.0
2018-May-13 10:00N 29°60' W 093°55'0 0.0
2018-May-13 09:30N 29°60' W 093°55'0 0.0
2018-May-13 09:00N 29°60' W 093°55'0 0.0
2018-May-13 08:31N 29°60' W 093°55'0 0.0
2018-May-13 08:00N 29°60' W 093°55'0 0.0
2018-May-13 07:31N 29°60' W 093°55'0 0.0
2018-May-13 07:00N 29°60' W 093°55'0 0.0
2018-May-13 06:30N 29°60' W 093°55'0 0.0
2018-May-13 06:01N 29°60' W 093°55'0 0.0
2018-May-13 05:31N 29°60' W 093°55'0 0.0
2018-May-13 05:00N 29°60' W 093°55'0 0.0
2018-May-13 04:30N 29°60' W 093°55'0 0.0
2018-May-13 04:00N 29°60' W 093°55'0 0.0
2018-May-13 03:31N 29°60' W 093°55'0 0.0
2018-May-13 03:01N 29°60' W 093°55'0 0.0
2018-May-13 02:30N 29°60' W 093°55'0 0.0
2018-May-13 02:01N 29°60' W 093°55'0 0.0
2018-May-13 01:30N 29°60' W 093°55'0 0.0
2018-May-13 01:00N 29°60' W 093°55'0 0.0
2018-May-13 00:30N 29°60' W 093°55'0 0.0
2018-May-13 00:00N 29°60' W 093°55'0 0.0
2018-May-12 23:30N 29°60' W 093°55'0 0.0
2018-May-12 23:01N 29°60' W 093°55'0 0.0
2018-May-12 22:30N 29°60' W 093°55'0 0.0
2018-May-12 22:01N 29°60' W 093°55'0 0.0
2018-May-12 21:30N 29°60' W 093°55'0 0.0
2018-May-12 21:00N 29°60' W 093°55'0 0.0
2018-May-12 20:31N 29°60' W 093°55'0 0.0
2018-May-12 20:01N 29°60' W 093°55'0 0.0
2018-May-12 19:31N 29°60' W 093°55'0 0.0
2018-May-12 19:00N 29°60' W 093°55'0 0.0
2018-May-12 18:31N 29°60' W 093°55'0 0.0
2018-May-12 18:01N 29°60' W 093°55'0 0.0
2018-May-12 17:30N 29°60' W 093°55'0 0.0
2018-May-12 17:01N 29°60' W 093°55'0 0.0
2018-May-12 16:30N 29°60' W 093°55'0 0.0
2018-May-12 16:00N 29°60' W 093°55'0 0.0
2018-May-12 15:26N 29°60' W 093°55'0 0.0
2018-May-12 14:58N 29°60' W 093°55'0 0.0
2018-May-12 14:30N 29°60' W 093°55'0 0.0
2018-May-12 13:55N 29°60' W 093°55'1 2.8
2018-May-12 13:30N 29°60' W 093°56'4 7.8
2018-May-12 13:00N 30°01' W 094°00'3 6.3
2018-May-12 12:30N 30°04' W 094°02'0 0.0
2018-May-12 12:00N 30°04' W 094°02'0 0.0
2018-May-12 11:30N 30°04' W 094°02'0 0.0
2018-May-12 10:57N 30°04' W 094°02'0 0.0
2018-May-12 10:30N 30°04' W 094°02'0 0.0
2018-May-12 10:00N 30°04' W 094°02'0 0.0
2018-May-12 09:30N 30°04' W 094°02'0 0.0
2018-May-12 09:00N 30°04' W 094°02'0 0.0
2018-May-12 08:30N 30°04' W 094°02'0 0.0
2018-May-12 08:00N 30°04' W 094°02'0 0.0
2018-May-12 07:30N 30°04' W 094°02'0 0.0
2018-May-12 07:00N 30°04' W 094°02'0 0.0
2018-May-12 06:30N 30°04' W 094°02'0 0.0
2018-May-12 06:00N 30°04' W 094°02'0 0.0
2018-May-12 05:30N 30°04' W 094°02'0 0.0
2018-May-12 05:00N 30°04' W 094°02'0 0.0
2018-May-12 04:30N 30°04' W 094°02'0 0.0
2018-May-12 04:00N 30°04' W 094°02'0 0.0
2018-May-12 03:30N 30°04' W 094°02'0 0.0
2018-May-12 03:00N 30°04' W 094°02'0 0.0
2018-May-12 02:30N 30°04' W 094°02'0 0.0
2018-May-12 02:00N 30°04' W 094°02'0 0.0
2018-May-12 01:30N 30°04' W 094°02'0 0.0
2018-May-12 01:00N 30°04' W 094°02'0 0.0
2018-May-12 00:30N 30°04' W 094°02'0 0.0
2018-May-12 00:00N 30°04' W 094°02'0 0.0
2018-May-11 23:30N 30°04' W 094°02'0 0.0
2018-May-11 23:00N 30°04' W 094°02'0 0.0
2018-May-11 22:30N 30°04' W 094°02'0 0.0
2018-May-11 22:00N 30°04' W 094°02'0 0.0
2018-May-11 21:30N 30°04' W 094°02'1 1.8
2018-May-11 21:00N 30°03' W 094°02'2 3.2
2018-May-11 20:30N 30°01' W 094°01'0 0.0
2018-May-11 20:00N 30°01' W 094°01'0 0.0
2018-May-11 19:30N 30°01' W 094°01'0 0.0
2018-May-11 19:00N 30°01' W 094°01'0 0.0
2018-May-11 18:30N 30°01' W 094°01'0 0.0
2018-May-11 18:00N 30°01' W 094°01'0 0.0
2018-May-11 17:30N 30°01' W 094°01'0 0.0
2018-May-11 17:00N 30°01' W 094°01'0 0.0
2018-May-11 16:30N 30°01' W 094°01'0 0.0
2018-May-11 15:59N 30°01' W 094°01'0 0.0
2018-May-11 15:30N 30°01' W 094°01'0 0.0
2018-May-11 15:00N 30°01' W 094°01'0 0.0
2018-May-11 14:30N 30°01' W 094°01'0 0.0
2018-May-11 14:00N 30°01' W 094°01'0 0.0
2018-May-11 13:30N 30°01' W 094°01'0 0.0
2018-May-11 13:00N 30°01' W 094°01'0 0.0
2018-May-11 12:30N 30°01' W 094°01'0 0.0
2018-May-11 12:00N 30°01' W 094°01'0 0.0
2018-May-11 11:30N 30°01' W 094°01'0 0.0
2018-May-11 11:00N 30°01' W 094°01'0 0.0
2018-May-11 10:30N 30°01' W 094°01'0 0.0
2018-May-11 10:00N 30°01' W 094°01'0 0.0
2018-May-11 09:30N 30°01' W 094°01'0 0.0
2018-May-11 09:00N 30°01' W 094°01'0 0.0
2018-May-11 08:30N 30°01' W 094°01'0 0.0
2018-May-11 08:00N 30°01' W 094°01'0 0.0
2018-May-11 07:30N 30°01' W 094°01'0 0.0
2018-May-11 07:00N 30°01' W 094°01'0 0.0
2018-May-11 06:30N 30°01' W 094°01'3 7.0
2018-May-11 06:01N 30°01' W 093°57'2 4.4
2018-May-11 05:30N 29°60' W 093°55'0 0.0
2018-May-11 05:00N 29°60' W 093°55'0 0.0
2018-May-11 04:30N 29°60' W 093°55'  
Track history (hours):
 
Tides and Currents Weather Stations Pressure Air Temp Water Temp Dewpoint Dewpoint Depression Visibility Wind Speed Wind Dir Waves Ship Positions

Nicole Brent

Owner: Kirby Inland Marine, LP, Houston, TX. More information available from US FCC via Universal Licensing System and Coast Guard Vessel Documentation Center.

Last reported at 2018-May-21 04:08 UTC. Time now 2018-May-21 18:54 UTC.
Position N 29°47' W 095°04'.

Length 105 m; draft 2.4 m.

Type: . MMSI: 366995620.

Date/timePositionNaut miles runAvg speedWind from/ knotsBaromVisibWave heightAir tempDewpointWater temp
2018-May-21 04:08N 29°47' W 095°04'0 0.0
2018-May-21 03:54N 29°47' W 095°04'0 0.0
2018-May-21 03:31N 29°47' W 095°04'0 0.0
2018-May-21 03:00N 29°47' W 095°04'  
2018-May-17 13:45N 29°48' W 095°04'0 0.3
2018-May-17 13:26N 29°47' W 095°04'0 0.0
2018-May-17 12:49N 29°47' W 095°04'0 0.0
2018-May-17 12:30N 29°47' W 095°04'0 0.0
2018-May-17 11:59N 29°47' W 095°04'0 0.1
2018-May-17 10:48N 29°47' W 095°04'0 0.0
2018-May-17 10:08N 29°47' W 095°04'0 0.0
2018-May-17 09:57N 29°47' W 095°04'0 0.0
2018-May-17 09:19N 29°47' W 095°04'0 0.0
2018-May-17 09:00N 29°47' W 095°04'0 0.0
2018-May-17 08:06N 29°47' W 095°04'0 0.0
2018-May-17 05:53N 29°47' W 095°04'0 0.0
2018-May-17 05:22N 29°47' W 095°04'0 0.0
2018-May-17 04:59N 29°47' W 095°04'0 0.0
2018-May-17 04:27N 29°47' W 095°04'0 0.0
2018-May-17 04:00N 29°47' W 095°04'0 0.0
2018-May-17 03:30N 29°47' W 095°04'0 0.0
2018-May-17 02:56N 29°47' W 095°04'0 0.1
2018-May-17 02:26N 29°47' W 095°04'2 4.3
2018-May-17 01:59N 29°46' W 095°05'4 6.8
2018-May-17 01:27N 29°44' W 095°09'3 0.2
2018-May-16 08:40N 29°44' W 095°12'0 0.0
2018-May-16 08:25N 29°44' W 095°12'0 0.0
2018-May-16 08:00N 29°44' W 095°12'0 0.0
2018-May-16 07:30N 29°44' W 095°12'0 0.0
2018-May-16 06:37N 29°44' W 095°12'0 0.0
2018-May-16 06:30N 29°44' W 095°12'0 0.0
2018-May-16 05:58N 29°44' W 095°12'0 0.0
2018-May-16 04:23N 29°44' W 095°12'0 0.0
2018-May-16 04:00N 29°44' W 095°12'1 0.5
2018-May-16 01:24N 29°45' W 095°11'4 7.5
2018-May-16 00:55N 29°45' W 095°06'3 5.2
2018-May-16 00:25N 29°44' W 095°03'3 6.9
2018-May-16 00:00N 29°42' W 095°01'4 7.5
2018-May-15 23:30N 29°39' W 094°58'4 8.1
2018-May-15 23:00N 29°36' W 094°56'4 8.0
2018-May-15 22:30N 29°32' W 094°54'11 6.5
2018-May-15 20:46N 29°24' W 094°45'1 4.4
2018-May-15 20:28N 29°25' W 094°44'3 6.0
2018-May-15 19:57N 29°27' W 094°42'3 5.8
2018-May-15 19:30N 29°28' W 094°39'3 6.6
2018-May-15 19:00N 29°29' W 094°36'3 6.6
2018-May-15 18:30N 29°31' W 094°32'3 6.2
2018-May-15 18:00N 29°32' W 094°29'3 6.2
2018-May-15 17:30N 29°34' W 094°26'3 4.1
2018-May-15 16:46N 29°36' W 094°23'1 4.3
2018-May-15 16:29N 29°36' W 094°22'2 4.9
2018-May-15 16:00N 29°37' W 094°20'3 6.3
2018-May-15 15:30N 29°39' W 094°17'3 6.4
2018-May-15 15:00N 29°40' W 094°13'3 6.4
2018-May-15 14:30N 29°41' W 094°10'3 6.4
2018-May-15 14:00N 29°43' W 094°07'3 6.6
2018-May-15 13:30N 29°45' W 094°04'3 6.9
2018-May-15 13:00N 29°47' W 094°01'3 6.5
2018-May-15 12:30N 29°49' W 093°58'3 6.5
2018-May-15 12:00N 29°52' W 093°56'3 6.8
2018-May-15 11:30N 29°55' W 093°53'3 6.1
2018-May-15 11:00N 29°57' W 093°52'3 6.2
2018-May-15 10:30N 29°59' W 093°54'4 7.1
2018-May-15 10:00N 30°01' W 093°58'2 4.2
2018-May-15 09:30N 30°01' W 094°01'1 1.6
2018-May-15 09:00N 30°01' W 094°01'0 0.0
2018-May-15 08:30N 30°01' W 094°01'0 0.0
2018-May-15 08:00N 30°01' W 094°01'0 0.0
2018-May-15 07:30N 30°01' W 094°01'0 0.0
2018-May-15 07:00N 30°01' W 094°01'0 0.0
2018-May-15 06:30N 30°01' W 094°01'0 0.0
2018-May-15 06:00N 30°01' W 094°01'0 0.0
2018-May-15 05:30N 30°01' W 094°01'0 0.0
2018-May-15 05:00N 30°01' W 094°01'0 0.0
2018-May-15 04:30N 30°01' W 094°01'0 0.0
2018-May-15 04:00N 30°01' W 094°01'0 0.0
2018-May-15 03:30N 30°01' W 094°01'0 0.0
2018-May-15 03:00N 30°01' W 094°01'0 0.0
2018-May-15 02:30N 30°01' W 094°01'0 0.0
2018-May-15 02:00N 30°01' W 094°01'0 0.0
2018-May-15 01:30N 30°01' W 094°01'0 0.0
2018-May-15 01:00N 30°01' W 094°01'0 0.0
2018-May-15 00:30N 30°01' W 094°01'0 0.0
2018-May-15 00:00N 30°01' W 094°01'3 6.4
2018-May-14 23:30N 30°01' W 093°58'3 6.0
2018-May-14 23:01N 29°60' W 093°55'0 0.2
2018-May-14 22:30N 29°60' W 093°55'1 2.8
2018-May-14 22:00N 29°59' W 093°53'1 1.2
2018-May-14 21:31N 29°59' W 093°53'2 3.9
2018-May-14 21:00N 29°60' W 093°55'0 0.0
2018-May-14 20:30N 29°60' W 093°55'0 0.0
2018-May-14 20:00N 29°60' W 093°55'0 0.0
2018-May-14 19:30N 29°60' W 093°55'0 0.0
2018-May-14 19:00N 29°60' W 093°55'1 1.7
2018-May-14 18:30N 29°59' W 093°54'2 4.5
2018-May-14 18:00N 29°58' W 093°52'3 6.0
2018-May-14 17:30N 29°60' W 093°55'0 0.0
2018-May-14 17:00N 29°60' W 093°55'0 0.0
2018-May-14 16:30N 29°60' W 093°55'0 0.0
2018-May-14 16:00N 29°60' W 093°55'0 0.0
2018-May-14 15:30N 29°60' W 093°55'0 0.0
2018-May-14 15:00N 29°60' W 093°55'0 0.0
2018-May-14 14:30N 29°60' W 093°55'0 0.0
2018-May-14 14:00N 29°60' W 093°55'0 0.0
2018-May-14 13:30N 29°60' W 093°55'0 0.0
2018-May-14 13:00N 29°60' W 093°55'0 0.0
2018-May-14 12:30N 29°60' W 093°55'1 2.6
2018-May-14 12:00N 29°59' W 093°53'1 2.6
2018-May-14 11:30N 29°59' W 093°52'3 5.2
2018-May-14 11:00N 29°60' W 093°55'0 0.0
2018-May-14 10:30N 29°60' W 093°55'0 0.0
2018-May-14 10:00N 29°60' W 093°55'0 0.0
2018-May-14 09:30N 29°60' W 093°55'0 0.0
2018-May-14 09:00N 29°60' W 093°55'0 0.0
2018-May-14 08:30N 29°60' W 093°55'0 0.0
2018-May-14 08:00N 29°60' W 093°55'0 0.0
2018-May-14 07:30N 29°60' W 093°55'2 3.8
2018-May-14 07:00N 29°59' W 093°53'1 2.5
2018-May-14 06:30N 29°58' W 093°52'0 0.0
2018-May-14 06:00N 29°58' W 093°52'3 5.3
2018-May-14 05:31N 29°59' W 093°54'1 1.2
2018-May-14 05:00N 29°60' W 093°55'0 0.0
2018-May-14 04:30N 29°60' W 093°55'0 0.0
2018-May-14 04:00N 29°60' W 093°55'0 0.0
2018-May-14 03:30N 29°60' W 093°55'0 0.0
2018-May-14 03:00N 29°60' W 093°55'0 0.0
2018-May-14 02:30N 29°60' W 093°55'0 0.0
2018-May-14 02:00N 29°60' W 093°55'0 0.0
2018-May-14 01:30N 29°60' W 093°55'0 0.0
2018-May-14 01:00N 29°60' W 093°55'0 0.0
2018-May-14 00:30N 29°60' W 093°55'0 0.0
2018-May-14 00:00N 29°60' W 093°55'0 0.0
2018-May-13 23:30N 29°60' W 093°55'0 0.0
2018-May-13 23:00N 29°60' W 093°55'0 0.0
2018-May-13 22:30N 29°60' W 093°55'0 0.0
2018-May-13 22:00N 29°60' W 093°55'0 0.0
2018-May-13 21:30N 29°60' W 093°55'0 0.0
2018-May-13 21:00N 29°60' W 093°55'0 0.0
2018-May-13 20:30N 29°60' W 093°55'0 0.0
2018-May-13 20:00N 29°60' W 093°55'0 0.0
2018-May-13 19:30N 29°60' W 093°55'0 0.0
2018-May-13 19:00N 29°60' W 093°55'0 0.0
2018-May-13 18:30N 29°60' W 093°55'0 0.0
2018-May-13 18:00N 29°60' W 093°55'0 0.0
2018-May-13 17:29N 29°60' W 093°55'0 0.0
2018-May-13 17:00N 29°60' W 093°55'0 0.0
2018-May-13 16:30N 29°60' W 093°55'0 0.0
2018-May-13 16:00N 29°60' W 093°55'0 0.0
2018-May-13 15:30N 29°60' W 093°55'0 0.0
2018-May-13 15:01N 29°60' W 093°55'0 0.0
2018-May-13 14:30N 29°60' W 093°55'0 0.0
2018-May-13 14:00N 29°60' W 093°55'0 0.0
2018-May-13 13:30N 29°60' W 093°55'0 0.0
2018-May-13 13:00N 29°60' W 093°55'0 0.0
2018-May-13 12:30N 29°60' W 093°55'0 0.0
2018-May-13 12:00N 29°60' W 093°55'0 0.0
2018-May-13 11:30N 29°60' W 093°55'0 0.0
2018-May-13 11:00N 29°60' W 093°55'0 0.0
2018-May-13 10:30N 29°60' W 093°55'0 0.0
2018-May-13 10:00N 29°60' W 093°55'0 0.0
2018-May-13 09:30N 29°60' W 093°55'0 0.0
2018-May-13 09:00N 29°60' W 093°55'0 0.0
2018-May-13 08:31N 29°60' W 093°55'0 0.0
2018-May-13 08:00N 29°60' W 093°55'0 0.0
2018-May-13 07:31N 29°60' W 093°55'0 0.0
2018-May-13 07:00N 29°60' W 093°55'0 0.0
2018-May-13 06:30N 29°60' W 093°55'0 0.0
2018-May-13 06:01N 29°60' W 093°55'0 0.0
2018-May-13 05:31N 29°60' W 093°55'0 0.0
2018-May-13 05:00N 29°60' W 093°55'0 0.0
2018-May-13 04:30N 29°60' W 093°55'0 0.0
2018-May-13 04:00N 29°60' W 093°55'0 0.0
2018-May-13 03:31N 29°60' W 093°55'0 0.0
2018-May-13 03:01N 29°60' W 093°55'0 0.0
2018-May-13 02:30N 29°60' W 093°55'0 0.0
2018-May-13 02:01N 29°60' W 093°55'0 0.0
2018-May-13 01:30N 29°60' W 093°55'0 0.0
2018-May-13 01:00N 29°60' W 093°55'0 0.0
2018-May-13 00:30N 29°60' W 093°55'0 0.0
2018-May-13 00:00N 29°60' W 093°55'0 0.0
2018-May-12 23:30N 29°60' W 093°55'0 0.0
2018-May-12 23:01N 29°60' W 093°55'0 0.0
2018-May-12 22:30N 29°60' W 093°55'0 0.0
2018-May-12 22:01N 29°60' W 093°55'0 0.0
2018-May-12 21:30N 29°60' W 093°55'0 0.0
2018-May-12 21:00N 29°60' W 093°55'0 0.0
2018-May-12 20:31N 29°60' W 093°55'0 0.0
2018-May-12 20:01N 29°60' W 093°55'0 0.0
2018-May-12 19:31N 29°60' W 093°55'0 0.0
2018-May-12 19:00N 29°60' W 093°55'0 0.0
2018-May-12 18:31N 29°60' W 093°55'0 0.0
2018-May-12 18:01N 29°60' W 093°55'0 0.0
2018-May-12 17:30N 29°60' W 093°55'0 0.0
2018-May-12 17:01N 29°60' W 093°55'0 0.0
2018-May-12 16:30N 29°60' W 093°55'0 0.0
2018-May-12 16:00N 29°60' W 093°55'0 0.0
2018-May-12 15:26N 29°60' W 093°55'0 0.0
2018-May-12 14:58N 29°60' W 093°55'0 0.0
2018-May-12 14:30N 29°60' W 093°55'0 0.0
2018-May-12 13:55N 29°60' W 093°55'1 2.8
2018-May-12 13:30N 29°60' W 093°56'4 7.8
2018-May-12 13:00N 30°01' W 094°00'3 6.3
2018-May-12 12:30N 30°04' W 094°02'0 0.0
2018-May-12 12:00N 30°04' W 094°02'0 0.0
2018-May-12 11:30N 30°04' W 094°02'0 0.0
2018-May-12 10:57N 30°04' W 094°02'0 0.0
2018-May-12 10:30N 30°04' W 094°02'0 0.0
2018-May-12 10:00N 30°04' W 094°02'0 0.0
2018-May-12 09:30N 30°04' W 094°02'0 0.0
2018-May-12 09:00N 30°04' W 094°02'0 0.0
2018-May-12 08:30N 30°04' W 094°02'0 0.0
2018-May-12 08:00N 30°04' W 094°02'0 0.0
2018-May-12 07:30N 30°04' W 094°02'0 0.0
2018-May-12 07:00N 30°04' W 094°02'0 0.0
2018-May-12 06:30N 30°04' W 094°02'0 0.0
2018-May-12 06:00N 30°04' W 094°02'0 0.0
2018-May-12 05:30N 30°04' W 094°02'0 0.0
2018-May-12 05:00N 30°04' W 094°02'0 0.0
2018-May-12 04:30N 30°04' W 094°02'0 0.0
2018-May-12 04:00N 30°04' W 094°02'0 0.0
2018-May-12 03:30N 30°04' W 094°02'0 0.0
2018-May-12 03:00N 30°04' W 094°02'0 0.0
2018-May-12 02:30N 30°04' W 094°02'0 0.0
2018-May-12 02:00N 30°04' W 094°02'0 0.0
2018-May-12 01:30N 30°04' W 094°02'0 0.0
2018-May-12 01:00N 30°04' W 094°02'0 0.0
2018-May-12 00:30N 30°04' W 094°02'0 0.0
2018-May-12 00:00N 30°04' W 094°02'0 0.0
2018-May-11 23:30N 30°04' W 094°02'0 0.0
2018-May-11 23:00N 30°04' W 094°02'0 0.0
2018-May-11 22:30N 30°04' W 094°02'0 0.0
2018-May-11 22:00N 30°04' W 094°02'0 0.0
2018-May-11 21:30N 30°04' W 094°02'1 1.8
2018-May-11 21:00N 30°03' W 094°02'2 3.2
2018-May-11 20:30N 30°01' W 094°01'0 0.0
2018-May-11 20:00N 30°01' W 094°01'0 0.0
2018-May-11 19:30N 30°01' W 094°01'0 0.0
2018-May-11 19:00N 30°01' W 094°01'0 0.0
2018-May-11 18:30N 30°01' W 094°01'0 0.0
2018-May-11 18:00N 30°01' W 094°01'0 0.0
2018-May-11 17:30N 30°01' W 094°01'0 0.0
2018-May-11 17:00N 30°01' W 094°01'0 0.0
2018-May-11 16:30N 30°01' W 094°01'0 0.0
2018-May-11 15:59N 30°01' W 094°01'0 0.0
2018-May-11 15:30N 30°01' W 094°01'0 0.0
2018-May-11 15:00N 30°01' W 094°01'0 0.0
2018-May-11 14:30N 30°01' W 094°01'0 0.0
2018-May-11 14:00N 30°01' W 094°01'0 0.0
2018-May-11 13:30N 30°01' W 094°01'0 0.0
2018-May-11 13:00N 30°01' W 094°01'0 0.0
2018-May-11 12:30N 30°01' W 094°01'0 0.0
2018-May-11 12:00N 30°01' W 094°01'0 0.0
2018-May-11 11:30N 30°01' W 094°01'0 0.0
2018-May-11 11:00N 30°01' W 094°01'0 0.0
2018-May-11 10:30N 30°01' W 094°01'0 0.0
2018-May-11 10:00N 30°01' W 094°01'0 0.0
2018-May-11 09:30N 30°01' W 094°01'0 0.0
2018-May-11 09:00N 30°01' W 094°01'0 0.0
2018-May-11 08:30N 30°01' W 094°01'0 0.0
2018-May-11 08:00N 30°01' W 094°01'0 0.0
2018-May-11 07:30N 30°01' W 094°01'0 0.0
2018-May-11 07:00N 30°01' W 094°01'0 0.0
2018-May-11 06:30N 30°01' W 094°01'3 7.0
2018-May-11 06:01N 30°01' W 093°57'2 4.4
2018-May-11 05:30N 29°60' W 093°55'0 0.0
2018-May-11 05:00N 29°60' W 093°55'0 0.0
2018-May-11 04:30N 29°60' W 093°55'  

Dump ship's entire track history